Terminal Aerodrome Forecast
Issued by NWS Melbourne, FL

Home | Current Version | Previous Version | Text Only | Print | Product List | Glossary On
Versions: 1 2 3 4 5 6 7 8 9 10 11 12 13 14 15 16 17 18 19 20 21 22 23 24 25 26
000
FTUS42 KMLB 211736
TAFMCO
TAF
KMCO 211736Z 2118/2224 11010KT 6SM -SHRA SCT025 BKN040 OVC080
      TEMPO 2118/2121 3SM SHRA BKN020
     FM220000 VRB03KT P6SM SCT040 BKN080
     FM220800 00000KT 5SM BR FEW003 SCT250
      TEMPO 2209/2213 1SM BR SCT003
     FM221400 04006KT P6SM SCT035 BKN250=

USA.gov is the U.S. government's official web portal to all federal, state and local government web resources and services.